sensor_id;sensor_type;location;lat;lon;timestamp;P1;durP1;ratioP1;P2;durP2;ratioP2
28022;SDS011;67403;50.104;8.758;2023-06-14T00:00:49;6.70;;;5.43;;
28022;SDS011;67403;50.104;8.758;2023-06-14T00:03:19;7.22;;;5.10;;
28022;SDS011;67403;50.104;8.758;2023-06-14T00:05:47;9.03;;;5.30;;
28022;SDS011;67403;50.104;8.758;2023-06-14T00:08:14;7.47;;;4.78;;
28022;SDS011;67403;50.104;8.758;2023-06-14T00:10:44;7.03;;;4.93;;
28022;SDS011;67403;50.104;8.758;2023-06-14T00:13:11;6.40;;;5.10;;
28022;SDS011;67403;50.104;8.758;2023-06-14T00:15:40;5.95;;;4.80;;
28022;SDS011;67403;50.104;8.758;2023-06-14T00:18:08;6.97;;;4.75;;
28022;SDS011;67403;50.104;8.758;2023-06-14T00:20:38;10.63;;;5.32;;
28022;SDS011;67403;50.104;8.758;2023-06-14T00:23:07;7.82;;;5.63;;
28022;SDS011;67403;50.104;8.758;2023-06-14T00:25:35;6.38;;;5.18;;
28022;SDS011;67403;50.104;8.758;2023-06-14T00:28:02;10.20;;;4.93;;
28022;SDS011;67403;50.104;8.758;2023-06-14T00:30:29;5.95;;;4.75;;
28022;SDS011;67403;50.104;8.758;2023-06-14T00:32:57;7.25;;;5.25;;
28022;SDS011;67403;50.104;8.758;2023-06-14T00:35:24;9.85;;;5.50;;
28022;SDS011;67403;50.104;8.758;2023-06-14T00:37:53;6.85;;;5.18;;
28022;SDS011;67403;50.104;8.758;2023-06-14T00:40:20;8.10;;;4.82;;
28022;SDS011;67403;50.104;8.758;2023-06-14T00:42:48;8.70;;;5.30;;
28022;SDS011;67403;50.104;8.758;2023-06-14T00:45:15;7.60;;;5.18;;
28022;SDS011;67403;50.104;8.758;2023-06-14T00:47:43;6.93;;;5.45;;
28022;SDS011;67403;50.104;8.758;2023-06-14T00:50:10;6.95;;;4.70;;
28022;SDS011;67403;50.104;8.758;2023-06-14T00:52:38;10.20;;;5.10;;
28022;SDS011;67403;50.104;8.758;2023-06-14T00:55:08;7.90;;;5.15;;
28022;SDS011;67403;50.104;8.758;2023-06-14T00:57:35;6.50;;;5.07;;
28022;SDS011;67403;50.104;8.758;2023-06-14T01:00:05;7.68;;;5.03;;
28022;SDS011;67403;50.104;8.758;2023-06-14T01:02:34;10.40;;;5.63;;
28022;SDS011;67403;50.104;8.758;2023-06-14T01:05:01;6.90;;;4.93;;
28022;SDS011;67403;50.104;8.758;2023-06-14T01:07:32;11.48;;;4.85;;
28022;SDS011;67403;50.104;8.758;2023-06-14T01:10:04;9.75;;;5.40;;
28022;SDS011;67403;50.104;8.758;2023-06-14T01:12:39;7.80;;;4.93;;
28022;SDS011;67403;50.104;8.758;2023-06-14T01:15:11;7.20;;;4.63;;
28022;SDS011;67403;50.104;8.758;2023-06-14T01:17:40;7.88;;;5.40;;
28022;SDS011;67403;50.104;8.758;2023-06-14T01:20:10;7.00;;;5.07;;
28022;SDS011;67403;50.104;8.758;2023-06-14T01:22:47;7.22;;;5.20;;
28022;SDS011;67403;50.104;8.758;2023-06-14T01:25:14;9.45;;;5.65;;
28022;SDS011;67403;50.104;8.758;2023-06-14T01:27:41;7.50;;;5.72;;
28022;SDS011;67403;50.104;8.758;2023-06-14T01:30:09;6.45;;;4.72;;
28022;SDS011;67403;50.104;8.758;2023-06-14T01:32:37;7.18;;;5.25;;
28022;SDS011;67403;50.104;8.758;2023-06-14T01:35:05;7.70;;;5.28;;
28022;SDS011;67403;50.104;8.758;2023-06-14T01:37:33;8.25;;;4.75;;
28022;SDS011;67403;50.104;8.758;2023-06-14T01:40:02;7.55;;;5.22;;
28022;SDS011;67403;50.104;8.758;2023-06-14T01:44:58;8.95;;;4.55;;
28022;SDS011;67403;50.104;8.758;2023-06-14T01:47:26;8.13;;;5.45;;
28022;SDS011;67403;50.104;8.758;2023-06-14T01:49:53;6.97;;;4.80;;
28022;SDS011;67403;50.104;8.758;2023-06-14T01:52:21;7.65;;;5.20;;
28022;SDS011;67403;50.104;8.758;2023-06-14T01:54:49;7.82;;;5.13;;
28022;SDS011;67403;50.104;8.758;2023-06-14T01:57:18;9.00;;;5.00;;
28022;SDS011;67403;50.104;8.758;2023-06-14T01:59:46;9.35;;;5.20;;
28022;SDS011;67403;50.104;8.758;2023-06-14T02:02:14;7.88;;;5.43;;
28022;SDS011;67403;50.104;8.758;2023-06-14T02:04:42;7.35;;;5.00;;
28022;SDS011;67403;50.104;8.758;2023-06-14T02:07:09;8.02;;;5.07;;
28022;SDS011;67403;50.104;8.758;2023-06-14T02:09:36;9.48;;;5.15;;
28022;SDS011;67403;50.104;8.758;2023-06-14T02:12:03;8.55;;;4.47;;
28022;SDS011;67403;50.104;8.758;2023-06-14T02:14:32;10.98;;;4.88;;
28022;SDS011;67403;50.104;8.758;2023-06-14T02:17:00;5.95;;;4.18;;
28022;SDS011;67403;50.104;8.758;2023-06-14T02:19:27;7.07;;;4.47;;
28022;SDS011;67403;50.104;8.758;2023-06-14T02:21:54;7.00;;;5.00;;
28022;SDS011;67403;50.104;8.758;2023-06-14T02:24:21;7.50;;;5.00;;
28022;SDS011;67403;50.104;8.758;2023-06-14T02:26:49;7.53;;;4.80;;
28022;SDS011;67403;50.104;8.758;2023-06-14T02:29:16;5.28;;;4.65;;
28022;SDS011;67403;50.104;8.758;2023-06-14T02:31:45;10.80;;;4.65;;
28022;SDS011;67403;50.104;8.758;2023-06-14T02:34:13;5.78;;;4.10;;
28022;SDS011;67403;50.104;8.758;2023-06-14T02:36:42;9.35;;;4.78;;
28022;SDS011;67403;50.104;8.758;2023-06-14T02:39:09;10.05;;;4.80;;
28022;SDS011;67403;50.104;8.758;2023-06-14T02:41:36;8.52;;;4.53;;
28022;SDS011;67403;50.104;8.758;2023-06-14T02:44:03;9.20;;;4.80;;
28022;SDS011;67403;50.104;8.758;2023-06-14T02:46:31;6.88;;;4.13;;
28022;SDS011;67403;50.104;8.758;2023-06-14T02:48:59;7.35;;;4.90;;
28022;SDS011;67403;50.104;8.758;2023-06-14T02:51:27;6.03;;;4.55;;
28022;SDS011;67403;50.104;8.758;2023-06-14T02:53:54;8.75;;;4.68;;
28022;SDS011;67403;50.104;8.758;2023-06-14T02:56:21;7.85;;;5.10;;
28022;SDS011;67403;50.104;8.758;2023-06-14T02:58:51;6.47;;;4.65;;
28022;SDS011;67403;50.104;8.758;2023-06-14T03:01:18;7.25;;;4.95;;
28022;SDS011;67403;50.104;8.758;2023-06-14T03:03:46;8.95;;;5.03;;
28022;SDS011;67403;50.104;8.758;2023-06-14T03:06:15;9.60;;;4.53;;
28022;SDS011;67403;50.104;8.758;2023-06-14T03:08:42;6.32;;;4.40;;
28022;SDS011;67403;50.104;8.758;2023-06-14T03:11:10;6.72;;;4.75;;
28022;SDS011;67403;50.104;8.758;2023-06-14T03:13:37;6.80;;;4.80;;
28022;SDS011;67403;50.104;8.758;2023-06-14T03:16:06;6.25;;;4.78;;
28022;SDS011;67403;50.104;8.758;2023-06-14T03:18:34;7.47;;;4.38;;
28022;SDS011;67403;50.104;8.758;2023-06-14T03:21:01;8.52;;;4.97;;
28022;SDS011;67403;50.104;8.758;2023-06-14T03:23:30;6.65;;;4.68;;
28022;SDS011;67403;50.104;8.758;2023-06-14T03:25:57;6.57;;;4.65;;
28022;SDS011;67403;50.104;8.758;2023-06-14T03:28:24;8.10;;;4.40;;
28022;SDS011;67403;50.104;8.758;2023-06-14T03:30:52;7.13;;;4.70;;
28022;SDS011;67403;50.104;8.758;2023-06-14T03:33:19;6.90;;;4.80;;
28022;SDS011;67403;50.104;8.758;2023-06-14T03:35:46;9.10;;;5.15;;
28022;SDS011;67403;50.104;8.758;2023-06-14T03:38:14;6.60;;;5.00;;
28022;SDS011;67403;50.104;8.758;2023-06-14T03:40:43;7.50;;;4.60;;
28022;SDS011;67403;50.104;8.758;2023-06-14T03:43:10;7.28;;;4.53;;
28022;SDS011;67403;50.104;8.758;2023-06-14T03:45:38;9.27;;;5.05;;
28022;SDS011;67403;50.104;8.758;2023-06-14T03:48:05;6.13;;;4.68;;
28022;SDS011;67403;50.104;8.758;2023-06-14T03:50:34;7.32;;;5.03;;
28022;SDS011;67403;50.104;8.758;2023-06-14T03:53:03;6.72;;;4.40;;
28022;SDS011;67403;50.104;8.758;2023-06-14T03:55:30;7.38;;;5.18;;
28022;SDS011;67403;50.104;8.758;2023-06-14T03:57:59;8.13;;;4.68;;
28022;SDS011;67403;50.104;8.758;2023-06-14T04:00:27;7.25;;;4.85;;
28022;SDS011;67403;50.104;8.758;2023-06-14T04:02:54;7.35;;;4.50;;
28022;SDS011;67403;50.104;8.758;2023-06-14T04:05:22;14.65;;;5.30;;
28022;SDS011;67403;50.104;8.758;2023-06-14T04:07:51;6.03;;;4.35;;
28022;SDS011;67403;50.104;8.758;2023-06-14T04:10:21;9.40;;;5.47;;
28022;SDS011;67403;50.104;8.758;2023-06-14T04:12:48;7.45;;;4.78;;
28022;SDS011;67403;50.104;8.758;2023-06-14T04:15:18;6.63;;;4.40;;
28022;SDS011;67403;50.104;8.758;2023-06-14T04:17:45;5.90;;;4.57;;
28022;SDS011;67403;50.104;8.758;2023-06-14T04:20:12;12.90;;;5.05;;
28022;SDS011;67403;50.104;8.758;2023-06-14T04:22:40;9.48;;;4.38;;
28022;SDS011;67403;50.104;8.758;2023-06-14T04:25:08;6.10;;;4.60;;
28022;SDS011;67403;50.104;8.758;2023-06-14T04:27:37;7.57;;;5.03;;
28022;SDS011;67403;50.104;8.758;2023-06-14T04:30:05;7.95;;;4.93;;
28022;SDS011;67403;50.104;8.758;2023-06-14T04:32:34;6.93;;;4.43;;
28022;SDS011;67403;50.104;8.758;2023-06-14T04:35:04;6.63;;;4.47;;
28022;SDS011;67403;50.104;8.758;2023-06-14T04:37:33;5.88;;;4.18;;
28022;SDS011;67403;50.104;8.758;2023-06-14T04:40:00;6.30;;;4.45;;
28022;SDS011;67403;50.104;8.758;2023-06-14T04:42:31;4.60;;;3.90;;
28022;SDS011;67403;50.104;8.758;2023-06-14T04:45:02;7.80;;;5.00;;
28022;SDS011;67403;50.104;8.758;2023-06-14T04:47:29;9.30;;;4.32;;
28022;SDS011;67403;50.104;8.758;2023-06-14T04:49:58;10.35;;;4.15;;
28022;SDS011;67403;50.104;8.758;2023-06-14T04:52:28;8.45;;;5.07;;
28022;SDS011;67403;50.104;8.758;2023-06-14T04:54:57;8.43;;;4.25;;
28022;SDS011;67403;50.104;8.758;2023-06-14T04:57:24;6.13;;;4.60;;
28022;SDS011;67403;50.104;8.758;2023-06-14T04:59:51;4.97;;;4.32;;
28022;SDS011;67403;50.104;8.758;2023-06-14T05:02:20;6.22;;;4.50;;
28022;SDS011;67403;50.104;8.758;2023-06-14T05:04:48;6.18;;;4.13;;
28022;SDS011;67403;50.104;8.758;2023-06-14T05:07:17;8.23;;;4.95;;
28022;SDS011;67403;50.104;8.758;2023-06-14T05:09:45;8.50;;;4.80;;
28022;SDS011;67403;50.104;8.758;2023-06-14T05:12:12;8.45;;;4.68;;
28022;SDS011;67403;50.104;8.758;2023-06-14T05:14:43;10.23;;;4.85;;
28022;SDS011;67403;50.104;8.758;2023-06-14T05:17:10;8.40;;;4.80;;
28022;SDS011;67403;50.104;8.758;2023-06-14T05:19:37;8.25;;;4.72;;
28022;SDS011;67403;50.104;8.758;2023-06-14T05:22:05;8.30;;;4.45;;
28022;SDS011;67403;50.104;8.758;2023-06-14T05:24:33;7.78;;;4.25;;
28022;SDS011;67403;50.104;8.758;2023-06-14T05:27:01;6.28;;;4.78;;
28022;SDS011;67403;50.104;8.758;2023-06-14T05:29:28;6.75;;;4.60;;
28022;SDS011;67403;50.104;8.758;2023-06-14T05:31:55;7.35;;;4.55;;
28022;SDS011;67403;50.104;8.758;2023-06-14T05:34:23;7.78;;;4.82;;
28022;SDS011;67403;50.104;8.758;2023-06-14T05:36:50;6.93;;;4.47;;
28022;SDS011;67403;50.104;8.758;2023-06-14T05:39:17;8.55;;;4.55;;
28022;SDS011;67403;50.104;8.758;2023-06-14T05:41:46;6.50;;;4.55;;
28022;SDS011;67403;50.104;8.758;2023-06-14T05:44:13;5.07;;;3.83;;
28022;SDS011;67403;50.104;8.758;2023-06-14T05:46:40;5.90;;;3.97;;
28022;SDS011;67403;50.104;8.758;2023-06-14T05:49:08;9.75;;;4.95;;
28022;SDS011;67403;50.104;8.758;2023-06-14T05:51:37;6.65;;;4.75;;
28022;SDS011;67403;50.104;8.758;2023-06-14T05:54:04;7.75;;;5.93;;
28022;SDS011;67403;50.104;8.758;2023-06-14T05:56:31;10.68;;;5.13;;
28022;SDS011;67403;50.104;8.758;2023-06-14T05:59:00;7.97;;;4.65;;
28022;SDS011;67403;50.104;8.758;2023-06-14T06:01:27;6.28;;;4.60;;
28022;SDS011;67403;50.104;8.758;2023-06-14T06:03:55;7.00;;;4.35;;
28022;SDS011;67403;50.104;8.758;2023-06-14T06:06:23;14.48;;;5.07;;
28022;SDS011;67403;50.104;8.758;2023-06-14T06:08:50;7.40;;;4.43;;
28022;SDS011;67403;50.104;8.758;2023-06-14T06:11:17;7.25;;;4.60;;
28022;SDS011;67403;50.104;8.758;2023-06-14T06:13:45;11.32;;;4.72;;
28022;SDS011;67403;50.104;8.758;2023-06-14T06:16:14;10.30;;;4.38;;
28022;SDS011;67403;50.104;8.758;2023-06-14T06:18:41;7.65;;;4.15;;
28022;SDS011;67403;50.104;8.758;2023-06-14T06:21:08;7.95;;;4.32;;
28022;SDS011;67403;50.104;8.758;2023-06-14T06:23:36;6.22;;;4.15;;
28022;SDS011;67403;50.104;8.758;2023-06-14T06:26:03;6.50;;;4.45;;
28022;SDS011;67403;50.104;8.758;2023-06-14T06:28:30;6.45;;;3.97;;
28022;SDS011;67403;50.104;8.758;2023-06-14T06:30:57;6.60;;;4.50;;
28022;SDS011;67403;50.104;8.758;2023-06-14T06:33:26;9.73;;;4.90;;
28022;SDS011;67403;50.104;8.758;2023-06-14T06:35:53;8.10;;;4.30;;
28022;SDS011;67403;50.104;8.758;2023-06-14T06:38:21;7.45;;;4.18;;
28022;SDS011;67403;50.104;8.758;2023-06-14T06:40:48;6.57;;;4.25;;
28022;SDS011;67403;50.104;8.758;2023-06-14T06:43:15;6.80;;;4.53;;
28022;SDS011;67403;50.104;8.758;2023-06-14T06:45:43;8.27;;;4.10;;
28022;SDS011;67403;50.104;8.758;2023-06-14T06:48:10;6.70;;;4.28;;
28022;SDS011;67403;50.104;8.758;2023-06-14T06:50:39;5.57;;;3.80;;
28022;SDS011;67403;50.104;8.758;2023-06-14T06:53:06;6.43;;;3.75;;
28022;SDS011;67403;50.104;8.758;2023-06-14T06:55:33;7.68;;;3.38;;
28022;SDS011;67403;50.104;8.758;2023-06-14T06:58:00;4.40;;;3.78;;
28022;SDS011;67403;50.104;8.758;2023-06-14T07:00:30;6.68;;;3.63;;
28022;SDS011;67403;50.104;8.758;2023-06-14T07:02:57;4.03;;;3.30;;
28022;SDS011;67403;50.104;8.758;2023-06-14T07:05:24;4.63;;;3.15;;
28022;SDS011;67403;50.104;8.758;2023-06-14T07:07:53;4.45;;;3.00;;
28022;SDS011;67403;50.104;8.758;2023-06-14T07:10:20;5.63;;;2.95;;
28022;SDS011;67403;50.104;8.758;2023-06-14T07:12:47;5.28;;;3.10;;
28022;SDS011;67403;50.104;8.758;2023-06-14T07:15:15;3.72;;;3.05;;
28022;SDS011;67403;50.104;8.758;2023-06-14T07:17:42;5.22;;;2.63;;
28022;SDS011;67403;50.104;8.758;2023-06-14T07:20:10;5.13;;;2.85;;
28022;SDS011;67403;50.104;8.758;2023-06-14T07:22:38;4.50;;;3.13;;
28022;SDS011;67403;50.104;8.758;2023-06-14T07:25:09;6.93;;;4.22;;
28022;SDS011;67403;50.104;8.758;2023-06-14T07:27:39;5.20;;;3.05;;
28022;SDS011;67403;50.104;8.758;2023-06-14T07:30:06;6.45;;;2.63;;
28022;SDS011;67403;50.104;8.758;2023-06-14T07:32:34;7.07;;;2.60;;
28022;SDS011;67403;50.104;8.758;2023-06-14T07:35:01;4.13;;;2.72;;
28022;SDS011;67403;50.104;8.758;2023-06-14T07:37:28;9.25;;;3.58;;
28022;SDS011;67403;50.104;8.758;2023-06-14T07:39:56;5.55;;;3.22;;
28022;SDS011;67403;50.104;8.758;2023-06-14T07:42:24;3.95;;;2.60;;
28022;SDS011;67403;50.104;8.758;2023-06-14T07:44:52;4.70;;;3.30;;
28022;SDS011;67403;50.104;8.758;2023-06-14T07:47:19;5.65;;;2.80;;
28022;SDS011;67403;50.104;8.758;2023-06-14T07:49:46;5.05;;;2.78;;
28022;SDS011;67403;50.104;8.758;2023-06-14T07:52:14;4.47;;;2.58;;
28022;SDS011;67403;50.104;8.758;2023-06-14T07:54:41;5.53;;;2.75;;
28022;SDS011;67403;50.104;8.758;2023-06-14T07:57:08;3.63;;;2.90;;
28022;SDS011;67403;50.104;8.758;2023-06-14T07:59:37;5.57;;;2.30;;
28022;SDS011;67403;50.104;8.758;2023-06-14T08:02:04;2.78;;;2.30;;
28022;SDS011;67403;50.104;8.758;2023-06-14T08:04:31;3.55;;;2.20;;
28022;SDS011;67403;50.104;8.758;2023-06-14T08:06:59;2.83;;;2.30;;
28022;SDS011;67403;50.104;8.758;2023-06-14T08:09:27;4.15;;;2.35;;
28022;SDS011;67403;50.104;8.758;2023-06-14T08:11:55;2.65;;;2.33;;
28022;SDS011;67403;50.104;8.758;2023-06-14T08:14:22;2.60;;;2.13;;
28022;SDS011;67403;50.104;8.758;2023-06-14T08:16:51;2.70;;;1.95;;
28022;SDS011;67403;50.104;8.758;2023-06-14T08:19:19;3.50;;;2.23;;
28022;SDS011;67403;50.104;8.758;2023-06-14T08:21:46;4.80;;;2.30;;
28022;SDS011;67403;50.104;8.758;2023-06-14T08:24:13;3.10;;;2.28;;
28022;SDS011;67403;50.104;8.758;2023-06-14T08:26:41;4.20;;;2.22;;
28022;SDS011;67403;50.104;8.758;2023-06-14T08:29:08;2.80;;;2.10;;
28022;SDS011;67403;50.104;8.758;2023-06-14T08:31:35;4.05;;;2.13;;
28022;SDS011;67403;50.104;8.758;2023-06-14T08:34:04;3.97;;;2.50;;
28022;SDS011;67403;50.104;8.758;2023-06-14T08:36:31;3.08;;;2.15;;
28022;SDS011;67403;50.104;8.758;2023-06-14T08:38:58;4.18;;;2.17;;
28022;SDS011;67403;50.104;8.758;2023-06-14T08:41:26;4.18;;;1.98;;
28022;SDS011;67403;50.104;8.758;2023-06-14T08:43:55;2.45;;;2.05;;
28022;SDS011;67403;50.104;8.758;2023-06-14T08:46:22;3.63;;;2.15;;
28022;SDS011;67403;50.104;8.758;2023-06-14T08:48:52;2.63;;;1.85;;
28022;SDS011;67403;50.104;8.758;2023-06-14T08:51:23;4.80;;;1.85;;
28022;SDS011;67403;50.104;8.758;2023-06-14T08:56:23;2.53;;;2.10;;
28022;SDS011;67403;50.104;8.758;2023-06-14T08:58:53;2.35;;;2.03;;
28022;SDS011;67403;50.104;8.758;2023-06-14T09:01:21;2.40;;;1.95;;
28022;SDS011;67403;50.104;8.758;2023-06-14T09:03:49;2.33;;;2.13;;
28022;SDS011;67403;50.104;8.758;2023-06-14T09:06:16;3.55;;;2.00;;
28022;SDS011;67403;50.104;8.758;2023-06-14T09:08:46;2.58;;;2.25;;
28022;SDS011;67403;50.104;8.758;2023-06-14T09:11:14;2.97;;;1.90;;
28022;SDS011;67403;50.104;8.758;2023-06-14T09:13:44;6.40;;;3.75;;
28022;SDS011;67403;50.104;8.758;2023-06-14T09:16:11;3.97;;;2.90;;
28022;SDS011;67403;50.104;8.758;2023-06-14T09:18:39;3.35;;;2.70;;
28022;SDS011;67403;50.104;8.758;2023-06-14T09:21:08;3.30;;;2.55;;
28022;SDS011;67403;50.104;8.758;2023-06-14T09:23:36;2.92;;;2.20;;
28022;SDS011;67403;50.104;8.758;2023-06-14T09:26:09;4.47;;;2.40;;
28022;SDS011;67403;50.104;8.758;2023-06-14T09:28:36;2.38;;;2.10;;
28022;SDS011;67403;50.104;8.758;2023-06-14T09:31:08;2.03;;;1.70;;
28022;SDS011;67403;50.104;8.758;2023-06-14T09:33:35;2.00;;;1.60;;
28022;SDS011;67403;50.104;8.758;2023-06-14T09:36:03;1.92;;;1.80;;
28022;SDS011;67403;50.104;8.758;2023-06-14T09:38:30;9.48;;;2.85;;
28022;SDS011;67403;50.104;8.758;2023-06-14T09:40:58;4.00;;;2.20;;
28022;SDS011;67403;50.104;8.758;2023-06-14T09:43:26;4.07;;;2.00;;
28022;SDS011;67403;50.104;8.758;2023-06-14T09:45:54;2.97;;;2.03;;
28022;SDS011;67403;50.104;8.758;2023-06-14T09:48:21;3.00;;;2.38;;
28022;SDS011;67403;50.104;8.758;2023-06-14T09:50:49;3.13;;;2.30;;
28022;SDS011;67403;50.104;8.758;2023-06-14T09:53:17;3.42;;;2.20;;
28022;SDS011;67403;50.104;8.758;2023-06-14T09:55:48;2.90;;;2.47;;
28022;SDS011;67403;50.104;8.758;2023-06-14T09:58:16;8.07;;;2.90;;
28022;SDS011;67403;50.104;8.758;2023-06-14T10:03:16;4.45;;;2.65;;
28022;SDS011;67403;50.104;8.758;2023-06-14T10:05:46;4.10;;;2.83;;
28022;SDS011;67403;50.104;8.758;2023-06-14T10:08:15;4.32;;;3.10;;
28022;SDS011;67403;50.104;8.758;2023-06-14T10:10:43;4.60;;;3.15;;
28022;SDS011;67403;50.104;8.758;2023-06-14T10:13:10;5.25;;;3.50;;
28022;SDS011;67403;50.104;8.758;2023-06-14T10:15:40;3.35;;;2.65;;
28022;SDS011;67403;50.104;8.758;2023-06-14T10:18:10;2.40;;;2.10;;
28022;SDS011;67403;50.104;8.758;2023-06-14T10:20:44;4.00;;;2.60;;
28022;SDS011;67403;50.104;8.758;2023-06-14T10:23:16;5.05;;;3.33;;
28022;SDS011;67403;50.104;8.758;2023-06-14T10:25:44;7.50;;;4.47;;
28022;SDS011;67403;50.104;8.758;2023-06-14T10:28:16;4.05;;;3.30;;
28022;SDS011;67403;50.104;8.758;2023-06-14T10:31:01;4.72;;;3.28;;
28022;SDS011;67403;50.104;8.758;2023-06-14T10:33:29;4.05;;;3.00;;
28022;SDS011;67403;50.104;8.758;2023-06-14T10:36:08;2.60;;;2.40;;
28022;SDS011;67403;50.104;8.758;2023-06-14T10:38:36;4.03;;;2.00;;
28022;SDS011;67403;50.104;8.758;2023-06-14T10:41:04;2.63;;;2.22;;
28022;SDS011;67403;50.104;8.758;2023-06-14T10:43:31;3.28;;;2.47;;
28022;SDS011;67403;50.104;8.758;2023-06-14T10:46:14;3.13;;;2.13;;
28022;SDS011;67403;50.104;8.758;2023-06-14T10:48:42;3.10;;;2.63;;
28022;SDS011;67403;50.104;8.758;2023-06-14T10:51:18;3.33;;;2.45;;
28022;SDS011;67403;50.104;8.758;2023-06-14T10:53:46;2.72;;;2.15;;
28022;SDS011;67403;50.104;8.758;2023-06-14T10:56:27;9.10;;;5.95;;
28022;SDS011;67403;50.104;8.758;2023-06-14T10:58:54;2.28;;;1.85;;
28022;SDS011;67403;50.104;8.758;2023-06-14T11:01:32;2.03;;;1.88;;
28022;SDS011;67403;50.104;8.758;2023-06-14T11:04:06;3.65;;;2.13;;
28022;SDS011;67403;50.104;8.758;2023-06-14T11:09:17;2.13;;;1.92;;
28022;SDS011;67403;50.104;8.758;2023-06-14T11:11:47;2.40;;;1.95;;
28022;SDS011;67403;50.104;8.758;2023-06-14T11:14:15;3.33;;;2.67;;
28022;SDS011;67403;50.104;8.758;2023-06-14T11:16:47;2.92;;;2.15;;
28022;SDS011;67403;50.104;8.758;2023-06-14T11:19:14;2.17;;;1.98;;
28022;SDS011;67403;50.104;8.758;2023-06-14T11:21:42;2.75;;;1.70;;
28022;SDS011;67403;50.104;8.758;2023-06-14T11:24:10;2.08;;;1.88;;
28022;SDS011;67403;50.104;8.758;2023-06-14T11:26:39;2.35;;;2.03;;
28022;SDS011;67403;50.104;8.758;2023-06-14T11:29:06;2.97;;;1.90;;
28022;SDS011;67403;50.104;8.758;2023-06-14T11:31:34;3.30;;;2.70;;
28022;SDS011;67403;50.104;8.758;2023-06-14T11:34:01;2.30;;;2.08;;
28022;SDS011;67403;50.104;8.758;2023-06-14T11:36:30;2.58;;;2.20;;
28022;SDS011;67403;50.104;8.758;2023-06-14T11:38:58;2.28;;;2.08;;
28022;SDS011;67403;50.104;8.758;2023-06-14T11:41:26;5.47;;;3.05;;
28022;SDS011;67403;50.104;8.758;2023-06-14T11:44:01;2.95;;;2.30;;
28022;SDS011;67403;50.104;8.758;2023-06-14T11:48:55;2.50;;;2.17;;
28022;SDS011;67403;50.104;8.758;2023-06-14T11:51:23;2.92;;;2.60;;
28022;SDS011;67403;50.104;8.758;2023-06-14T11:53:50;2.28;;;2.08;;
28022;SDS011;67403;50.104;8.758;2023-06-14T11:56:18;2.50;;;2.33;;
28022;SDS011;67403;50.104;8.758;2023-06-14T11:58:46;3.47;;;3.17;;
28022;SDS011;67403;50.104;8.758;2023-06-14T12:01:15;3.47;;;2.80;;
28022;SDS011;67403;50.104;8.758;2023-06-14T12:03:47;3.53;;;2.63;;
28022;SDS011;67403;50.104;8.758;2023-06-14T12:06:14;3.10;;;2.70;;
28022;SDS011;67403;50.104;8.758;2023-06-14T12:08:43;5.18;;;3.40;;
28022;SDS011;67403;50.104;8.758;2023-06-14T12:11:11;2.83;;;2.60;;
28022;SDS011;67403;50.104;8.758;2023-06-14T12:13:38;3.03;;;2.72;;
28022;SDS011;67403;50.104;8.758;2023-06-14T12:16:06;3.03;;;2.72;;
28022;SDS011;67403;50.104;8.758;2023-06-14T12:18:36;3.28;;;2.65;;
28022;SDS011;67403;50.104;8.758;2023-06-14T12:21:04;2.75;;;2.50;;
28022;SDS011;67403;50.104;8.758;2023-06-14T12:23:44;3.03;;;2.72;;
28022;SDS011;67403;50.104;8.758;2023-06-14T12:26:12;3.45;;;2.42;;
28022;SDS011;67403;50.104;8.758;2023-06-14T12:28:40;2.85;;;2.42;;
28022;SDS011;67403;50.104;8.758;2023-06-14T12:31:08;2.97;;;2.75;;
28022;SDS011;67403;50.104;8.758;2023-06-14T12:33:37;3.08;;;2.63;;
28022;SDS011;67403;50.104;8.758;2023-06-14T12:36:04;2.77;;;2.57;;
28022;SDS011;67403;50.104;8.758;2023-06-14T12:38:32;3.28;;;2.63;;
28022;SDS011;67403;50.104;8.758;2023-06-14T12:40:59;2.85;;;2.55;;
28022;SDS011;67403;50.104;8.758;2023-06-14T12:43:26;3.47;;;2.53;;
28022;SDS011;67403;50.104;8.758;2023-06-14T12:45:54;2.78;;;2.28;;
28022;SDS011;67403;50.104;8.758;2023-06-14T12:48:21;2.35;;;2.15;;
28022;SDS011;67403;50.104;8.758;2023-06-14T12:50:50;4.88;;;2.60;;
28022;SDS011;67403;50.104;8.758;2023-06-14T12:53:17;2.67;;;2.43;;
28022;SDS011;67403;50.104;8.758;2023-06-14T12:55:45;2.83;;;2.60;;
28022;SDS011;67403;50.104;8.758;2023-06-14T12:58:12;4.57;;;3.05;;
28022;SDS011;67403;50.104;8.758;2023-06-14T13:00:40;2.78;;;2.58;;
28022;SDS011;67403;50.104;8.758;2023-06-14T13:03:07;3.00;;;2.70;;
28022;SDS011;67403;50.104;8.758;2023-06-14T13:05:34;4.38;;;2.38;;
28022;SDS011;67403;50.104;8.758;2023-06-14T13:08:04;3.20;;;2.72;;
28022;SDS011;67403;50.104;8.758;2023-06-14T13:10:31;7.50;;;2.60;;
28022;SDS011;67403;50.104;8.758;2023-06-14T13:12:58;2.40;;;2.20;;
28022;SDS011;67403;50.104;8.758;2023-06-14T13:15:25;2.63;;;2.20;;
28022;SDS011;67403;50.104;8.758;2023-06-14T13:17:53;4.43;;;2.88;;
28022;SDS011;67403;50.104;8.758;2023-06-14T13:20:20;2.95;;;2.42;;
28022;SDS011;67403;50.104;8.758;2023-06-14T13:22:47;7.15;;;2.70;;
28022;SDS011;67403;50.104;8.758;2023-06-14T13:25:16;3.85;;;3.15;;
28022;SDS011;67403;50.104;8.758;2023-06-14T13:27:43;2.35;;;2.10;;
28022;SDS011;67403;50.104;8.758;2023-06-14T13:30:11;2.35;;;2.15;;
28022;SDS011;67403;50.104;8.758;2023-06-14T13:32:38;2.80;;;2.17;;
28022;SDS011;67403;50.104;8.758;2023-06-14T13:35:06;2.10;;;1.90;;
28022;SDS011;67403;50.104;8.758;2023-06-14T13:37:33;2.38;;;2.17;;
28022;SDS011;67403;50.104;8.758;2023-06-14T13:40:00;2.83;;;2.30;;
28022;SDS011;67403;50.104;8.758;2023-06-14T13:42:29;3.42;;;2.70;;
28022;SDS011;67403;50.104;8.758;2023-06-14T13:44:57;3.08;;;2.10;;
28022;SDS011;67403;50.104;8.758;2023-06-14T13:47:25;3.28;;;2.17;;
28022;SDS011;67403;50.104;8.758;2023-06-14T13:49:52;2.65;;;2.30;;
28022;SDS011;67403;50.104;8.758;2023-06-14T13:52:19;2.63;;;2.17;;
28022;SDS011;67403;50.104;8.758;2023-06-14T13:54:47;3.38;;;2.28;;
28022;SDS011;67403;50.104;8.758;2023-06-14T13:57:14;2.10;;;1.90;;
28022;SDS011;67403;50.104;8.758;2023-06-14T13:59:43;3.20;;;2.90;;
28022;SDS011;67403;50.104;8.758;2023-06-14T14:02:11;3.13;;;2.20;;
28022;SDS011;67403;50.104;8.758;2023-06-14T14:04:38;2.72;;;2.47;;
28022;SDS011;67403;50.104;8.758;2023-06-14T14:07:06;3.95;;;3.40;;
28022;SDS011;67403;50.104;8.758;2023-06-14T14:09:33;6.53;;;3.40;;
28022;SDS011;67403;50.104;8.758;2023-06-14T14:12:01;3.13;;;2.20;;
28022;SDS011;67403;50.104;8.758;2023-06-14T14:14:29;2.58;;;2.38;;
28022;SDS011;67403;50.104;8.758;2023-06-14T14:16:58;3.10;;;2.80;;
28022;SDS011;67403;50.104;8.758;2023-06-14T14:19:25;2.05;;;1.85;;
28022;SDS011;67403;50.104;8.758;2023-06-14T14:21:53;2.35;;;2.15;;
28022;SDS011;67403;50.104;8.758;2023-06-14T14:24:20;2.35;;;2.15;;
28022;SDS011;67403;50.104;8.758;2023-06-14T14:26:47;2.83;;;2.22;;
28022;SDS011;67403;50.104;8.758;2023-06-14T14:29:15;3.35;;;2.40;;
28022;SDS011;67403;50.104;8.758;2023-06-14T14:31:43;3.30;;;2.08;;
28022;SDS011;67403;50.104;8.758;2023-06-14T14:34:11;2.63;;;1.90;;
28022;SDS011;67403;50.104;8.758;2023-06-14T14:36:39;2.58;;;2.17;;
28022;SDS011;67403;50.104;8.758;2023-06-14T14:39:07;3.03;;;2.20;;
28022;SDS011;67403;50.104;8.758;2023-06-14T14:41:34;2.92;;;2.20;;
28022;SDS011;67403;50.104;8.758;2023-06-14T14:44:03;2.35;;;2.10;;
28022;SDS011;67403;50.104;8.758;2023-06-14T14:46:30;2.72;;;2.50;;
28022;SDS011;67403;50.104;8.758;2023-06-14T14:48:58;2.42;;;2.22;;
28022;SDS011;67403;50.104;8.758;2023-06-14T14:51:26;4.25;;;2.42;;
28022;SDS011;67403;50.104;8.758;2023-06-14T14:53:54;1.83;;;1.73;;
28022;SDS011;67403;50.104;8.758;2023-06-14T14:56:22;2.95;;;2.20;;
28022;SDS011;67403;50.104;8.758;2023-06-14T14:58:50;2.85;;;2.25;;
28022;SDS011;67403;50.104;8.758;2023-06-14T15:01:18;2.72;;;2.35;;
28022;SDS011;67403;50.104;8.758;2023-06-14T15:03:45;6.22;;;2.40;;
28022;SDS011;67403;50.104;8.758;2023-06-14T15:06:12;3.92;;;2.05;;